createdAt,value
2018-09-26T00:00:23.447Z,24.90
2018-09-26T00:01:23.471Z,24.96
2018-09-26T00:02:23.493Z,24.99
2018-09-26T00:03:23.511Z,25.02
2018-09-26T00:04:23.525Z,25.10
2018-09-26T00:05:23.539Z,25.00
2018-09-26T00:06:23.557Z,25.10
2018-09-26T00:07:23.578Z,25.08
2018-09-26T00:08:23.599Z,25.06
2018-09-26T00:09:23.615Z,25.08
2018-09-26T00:10:23.630Z,24.96
2018-09-26T00:11:23.646Z,24.95
2018-09-26T00:12:23.680Z,24.93
2018-09-26T00:13:23.693Z,25.00
2018-09-26T00:14:23.710Z,25.00
2018-09-26T00:15:23.735Z,24.95
2018-09-26T00:16:23.748Z,25.00
2018-09-26T00:17:23.763Z,24.96
2018-09-26T00:18:23.788Z,24.95
2018-09-26T00:19:23.811Z,25.08
2018-09-26T00:20:23.831Z,25.06
2018-09-26T00:21:23.843Z,25.06
2018-09-26T00:22:23.850Z,25.09
2018-09-26T00:23:23.869Z,25.05
2018-09-26T00:24:23.951Z,25.05
2018-09-26T00:25:23.913Z,25.06
2018-09-26T00:26:23.926Z,25.05
2018-09-26T00:27:23.942Z,25.08
2018-09-26T00:28:23.971Z,25.13
2018-09-26T00:29:23.983Z,25.00
2018-09-26T00:30:24.056Z,24.90
2018-09-26T00:31:24.023Z,24.93
2018-09-26T00:32:24.040Z,24.91
2018-09-26T00:33:24.059Z,24.95
2018-09-26T00:34:24.079Z,24.95
2018-09-26T00:35:24.085Z,24.85
2018-09-26T00:36:24.145Z,24.90
2018-09-26T00:37:24.149Z,24.96
2018-09-26T00:38:24.151Z,24.76
2018-09-26T00:39:24.162Z,24.80
2018-09-26T00:40:24.169Z,24.80
2018-09-26T00:41:24.199Z,24.84
2018-09-26T00:42:24.206Z,24.85
2018-09-26T00:43:24.234Z,24.87
2018-09-26T00:44:24.250Z,24.87
2018-09-26T00:45:24.287Z,24.76
2018-09-26T00:46:24.282Z,24.84
2018-09-26T00:47:24.315Z,24.77
2018-09-26T00:48:24.335Z,24.67
2018-09-26T00:49:24.355Z,24.68
2018-09-26T00:50:24.367Z,24.68
2018-09-26T00:51:24.391Z,24.65
2018-09-26T00:52:24.395Z,24.61
2018-09-26T00:53:24.418Z,24.65
2018-09-26T00:54:24.443Z,24.61
2018-09-26T00:55:24.452Z,24.55
2018-09-26T00:56:24.480Z,24.50
2018-09-26T00:57:24.492Z,24.47
2018-09-26T00:58:24.506Z,24.55
2018-09-26T00:59:24.531Z,24.57
2018-09-26T01:00:24.552Z,24.60
2018-09-26T01:01:24.557Z,24.43
2018-09-26T01:02:24.600Z,24.53
2018-09-26T01:03:24.599Z,24.64
2018-09-26T01:04:24.625Z,24.61
2018-09-26T01:05:24.633Z,24.52
2018-09-26T01:06:24.647Z,24.45
2018-09-26T01:07:24.726Z,24.30
2018-09-26T01:08:24.679Z,24.34
2018-09-26T01:09:24.728Z,24.28
2018-09-26T01:10:24.718Z,24.13
2018-09-26T01:11:24.741Z,24.12
2018-09-26T01:12:24.759Z,24.05
2018-09-26T01:13:24.781Z,24.02
2018-09-26T01:14:24.788Z,24.09
2018-09-26T01:15:24.825Z,24.03
2018-09-26T01:16:24.839Z,23.91
2018-09-26T01:17:24.852Z,23.85
2018-09-26T01:18:24.867Z,23.94
2018-09-26T01:19:24.915Z,23.91
2018-09-26T01:20:24.903Z,23.98
2018-09-26T01:21:24.936Z,23.95
2018-09-26T01:22:24.948Z,24.00
2018-09-26T01:23:24.959Z,24.08
2018-09-26T01:24:24.974Z,23.98
2018-09-26T01:25:24.987Z,24.02
2018-09-26T01:26:25.011Z,23.95
2018-09-26T01:27:25.023Z,24.02
2018-09-26T01:28:25.052Z,23.95
2018-09-26T01:29:25.072Z,23.94
2018-09-26T01:30:25.092Z,23.98
2018-09-26T01:31:25.112Z,23.93
2018-09-26T01:32:25.113Z,23.91
2018-09-26T01:33:25.143Z,23.94
2018-09-26T01:34:25.164Z,23.83
2018-09-26T01:35:25.175Z,23.84
2018-09-26T01:36:25.204Z,23.90
2018-09-26T01:37:25.214Z,24.03
2018-09-26T01:38:25.267Z,23.91
2018-09-26T01:39:25.243Z,23.93
2018-09-26T01:40:25.259Z,23.91
2018-09-26T01:41:25.448Z,23.87
2018-09-26T01:42:25.300Z,23.76
2018-09-26T01:43:25.328Z,23.73
2018-09-26T01:44:25.344Z,23.79
2018-09-26T01:45:25.368Z,23.75
2018-09-26T01:46:25.368Z,23.83
2018-09-26T01:47:25.392Z,23.66
2018-09-26T01:48:25.402Z,23.58
2018-09-26T01:49:25.432Z,23.51
2018-09-26T01:50:25.525Z,23.55
2018-09-26T01:51:25.459Z,23.60
2018-09-26T01:52:25.483Z,23.50
2018-09-26T01:53:25.507Z,23.32
2018-09-26T01:54:25.517Z,23.36
2018-09-26T01:55:25.544Z,23.33
2018-09-26T01:56:25.565Z,23.33
2018-09-26T01:57:25.568Z,23.32
2018-09-26T01:58:25.579Z,23.36
2018-09-26T01:59:25.599Z,23.31
2018-09-26T02:00:25.635Z,23.27
2018-09-26T02:01:25.643Z,23.32
2018-09-26T02:02:25.665Z,23.35
2018-09-26T02:03:25.671Z,23.36
2018-09-26T02:04:25.688Z,23.35
2018-09-26T02:05:25.726Z,23.39
2018-09-26T02:06:25.740Z,23.39
2018-09-26T02:07:25.748Z,23.47
2018-09-26T02:08:25.769Z,23.48
2018-09-26T02:09:25.779Z,23.39
2018-09-26T02:10:25.796Z,23.50
2018-09-26T02:11:25.819Z,23.51
2018-09-26T02:12:25.828Z,23.51
2018-09-26T02:13:25.860Z,23.47
2018-09-26T02:14:25.868Z,23.50
2018-09-26T02:15:25.888Z,23.35
2018-09-26T02:16:25.903Z,23.40
2018-09-26T02:17:25.936Z,23.35
2018-09-26T02:18:25.940Z,23.39
2018-09-26T02:19:25.955Z,23.35
2018-09-26T02:20:25.971Z,23.43
2018-09-26T02:21:26.060Z,23.40
2018-09-26T02:22:26.025Z,23.38
2018-09-26T02:23:26.026Z,23.47
2018-09-26T02:24:26.047Z,23.46
2018-09-26T02:25:26.068Z,23.40
2018-09-26T02:26:26.093Z,23.47
2018-09-26T02:27:26.155Z,23.33
2018-09-26T02:28:26.123Z,23.28
2018-09-26T02:29:26.136Z,23.22
2018-09-26T02:30:26.153Z,23.28
2018-09-26T02:31:26.173Z,23.27
2018-09-26T02:32:26.189Z,23.22
2018-09-26T02:33:26.264Z,23.19
2018-09-26T02:34:26.229Z,23.19
2018-09-26T02:35:26.257Z,23.05
2018-09-26T02:36:26.269Z,23.04
2018-09-26T02:37:26.281Z,23.09
2018-09-26T02:38:26.292Z,22.91
2018-09-26T02:39:26.357Z,22.94
2018-09-26T02:40:26.332Z,22.90
2018-09-26T02:41:26.357Z,22.94
2018-09-26T02:42:26.365Z,22.90
2018-09-26T02:43:26.389Z,22.94
2018-09-26T02:44:26.415Z,22.92
2018-09-26T02:45:26.490Z,22.95
2018-09-26T02:46:26.458Z,22.88
2018-09-26T02:47:26.462Z,22.95
2018-09-26T02:48:26.483Z,23.00
2018-09-26T02:49:26.499Z,22.92
2018-09-26T02:50:26.513Z,22.95
2018-09-26T02:51:26.522Z,22.97
2018-09-26T02:52:26.546Z,22.92
2018-09-26T02:53:26.565Z,22.91
2018-09-26T02:54:26.583Z,22.90
2018-09-26T02:55:26.600Z,22.97
2018-09-26T02:56:26.609Z,23.00
2018-09-26T02:57:26.638Z,22.90
2018-09-26T02:58:26.663Z,22.98
2018-09-26T02:59:26.682Z,22.88
2018-09-26T03:00:26.688Z,22.85
2018-09-26T03:01:26.708Z,22.92
2018-09-26T03:02:26.718Z,22.97
2018-09-26T03:04:33.815Z,22.86
2018-09-26T03:05:26.825Z,22.77
2018-09-26T03:06:26.787Z,22.82
2018-09-26T03:07:26.806Z,22.85
2018-09-26T03:08:26.818Z,22.83
2018-09-26T03:09:27.054Z,22.86
2018-09-26T03:10:26.869Z,22.90
2018-09-26T03:11:26.872Z,22.85
2018-09-26T03:12:26.895Z,22.94
2018-09-26T03:13:26.913Z,22.88
2018-09-26T03:14:26.928Z,22.77
2018-09-26T03:15:26.948Z,22.73
2018-09-26T03:16:26.966Z,22.80
2018-09-26T03:17:26.995Z,22.75
2018-09-26T03:18:27.004Z,22.86
2018-09-26T03:19:27.020Z,22.83
2018-09-26T03:20:27.031Z,22.86
2018-09-26T03:21:27.061Z,22.83
2018-09-26T03:22:27.075Z,22.77
2018-09-26T03:23:27.088Z,22.77
2018-09-26T03:24:27.103Z,22.61
2018-09-26T03:25:27.122Z,22.58
2018-09-26T03:26:27.145Z,22.62
2018-09-26T03:27:27.160Z,22.70
2018-09-26T03:28:27.178Z,22.68
2018-09-26T03:29:27.197Z,22.61
2018-09-26T03:30:27.210Z,22.70
2018-09-26T03:31:27.221Z,22.67
2018-09-26T03:32:27.248Z,22.72
2018-09-26T03:33:27.255Z,22.70
2018-09-26T03:34:27.280Z,22.67
2018-09-26T03:35:27.291Z,22.72
2018-09-26T03:36:27.320Z,22.75
2018-09-26T03:37:27.329Z,22.67
2018-09-26T03:38:27.351Z,22.58
2018-09-26T03:39:27.463Z,22.61
2018-09-26T03:40:27.378Z,22.65
2018-09-26T03:41:27.404Z,22.61
2018-09-26T03:42:27.413Z,22.57
2018-09-26T03:43:27.435Z,22.62
2018-09-26T03:44:27.451Z,22.46
2018-09-26T03:45:27.466Z,22.52
2018-09-26T03:46:27.499Z,22.52
2018-09-26T03:47:27.506Z,22.52
2018-09-26T03:48:27.524Z,22.47
2018-09-26T03:49:27.546Z,22.45
2018-09-26T03:50:27.559Z,22.52
2018-09-26T03:51:27.569Z,22.45
2018-09-26T03:52:27.591Z,22.49
2018-09-26T03:53:27.607Z,22.47
2018-09-26T03:54:27.632Z,22.51
2018-09-26T03:55:27.642Z,22.43
2018-09-26T03:56:27.666Z,22.39
2018-09-26T03:57:27.681Z,22.39
2018-09-26T03:58:27.692Z,22.46
2018-09-26T03:59:27.717Z,22.49
2018-09-26T04:00:27.737Z,22.46
2018-09-26T04:01:27.746Z,22.52
2018-09-26T04:02:27.759Z,22.46
2018-09-26T04:03:27.785Z,22.45
2018-09-26T04:04:27.806Z,22.49
2018-09-26T04:05:27.823Z,22.52
2018-09-26T04:06:27.835Z,22.52
2018-09-26T04:07:27.855Z,22.54
2018-09-26T04:08:27.873Z,22.51
2018-09-26T04:09:27.930Z,22.65
2018-09-26T04:10:27.906Z,22.65
2018-09-26T04:11:27.929Z,22.65
2018-09-26T04:12:27.987Z,22.64
2018-09-26T04:13:27.965Z,22.65
2018-09-26T04:14:27.980Z,22.73
2018-09-26T04:15:28.020Z,22.67
2018-09-26T04:16:28.016Z,22.67
2018-09-26T04:17:28.035Z,22.65
2018-09-26T04:18:28.054Z,22.73
2018-09-26T04:19:28.067Z,22.60
2018-09-26T04:20:28.191Z,22.58
2018-09-26T04:21:28.093Z,22.49
2018-09-26T04:22:28.151Z,22.49
2018-09-26T04:23:28.131Z,22.39
2018-09-26T04:24:28.152Z,22.40
2018-09-26T04:25:28.169Z,22.54
2018-09-26T04:26:28.389Z,22.51
2018-09-26T04:27:28.387Z,22.49
2018-09-26T04:28:28.217Z,22.49
2018-09-26T04:29:28.235Z,22.49
2018-09-26T04:30:28.284Z,22.54
2018-09-26T04:31:28.272Z,22.51
2018-09-26T04:32:28.304Z,22.54
2018-09-26T04:33:28.430Z,22.65
2018-09-26T04:34:28.394Z,22.72
2018-09-26T04:35:28.341Z,22.67
2018-09-26T04:36:28.363Z,22.73
2018-09-26T04:37:28.372Z,22.64
2018-09-26T04:38:28.443Z,22.73
2018-09-26T04:39:28.415Z,22.76
2018-09-26T04:40:28.431Z,22.70
2018-09-26T04:41:28.448Z,22.80
2018-09-26T04:42:28.467Z,22.72
2018-09-26T04:43:28.552Z,22.82
2018-09-26T04:44:28.504Z,22.79
2018-09-26T04:45:28.510Z,22.82
2018-09-26T04:46:28.582Z,22.86
2018-09-26T04:47:28.555Z,22.90
2018-09-26T04:48:28.564Z,22.94
2018-09-26T04:49:28.592Z,23.04
2018-09-26T04:50:28.599Z,23.04
2018-09-26T04:51:28.613Z,23.05
2018-09-26T04:52:28.674Z,23.13
2018-09-26T04:53:28.649Z,23.22
2018-09-26T04:54:28.666Z,23.22
2018-09-26T04:55:28.681Z,23.20
2018-09-26T04:56:28.703Z,23.12
2018-09-26T04:57:28.728Z,23.04
2018-09-26T04:58:28.743Z,22.94
2018-09-26T04:59:28.760Z,22.86
2018-09-26T05:00:28.778Z,22.82
2018-09-26T05:01:28.805Z,22.76
2018-09-26T05:02:28.806Z,22.85
2018-09-26T05:03:28.836Z,22.88
2018-09-26T05:04:28.843Z,22.91
2018-09-26T05:05:28.864Z,23.02
2018-09-26T05:06:28.886Z,23.10
2018-09-26T05:07:28.897Z,23.23
2018-09-26T05:08:28.916Z,23.17
2018-09-26T05:09:28.937Z,23.22
2018-09-26T05:10:28.960Z,23.16
2018-09-26T05:11:28.962Z,23.27
2018-09-26T05:12:28.987Z,23.31
2018-09-26T05:13:29.009Z,23.36
2018-09-26T05:14:29.021Z,23.39
2018-09-26T05:15:29.037Z,23.46
2018-09-26T05:16:29.056Z,23.42
2018-09-26T05:17:29.105Z,23.40
2018-09-26T05:18:29.094Z,23.31
2018-09-26T05:19:29.105Z,23.13
2018-09-26T05:20:29.125Z,22.90
2018-09-26T05:21:29.153Z,22.77
2018-09-26T05:22:29.160Z,22.70
2018-09-26T05:23:29.203Z,22.61
2018-09-26T05:24:29.191Z,22.57
2018-09-26T05:25:29.222Z,22.45
2018-09-26T05:26:29.228Z,22.24
2018-09-26T05:27:29.243Z,22.09
2018-09-26T05:28:29.270Z,22.14
2018-09-26T05:29:29.311Z,22.14
2018-09-26T05:30:29.472Z,22.17
2018-09-26T05:31:29.311Z,22.21
2018-09-26T05:32:29.334Z,22.02
2018-09-26T05:33:29.350Z,22.06
2018-09-26T05:34:29.367Z,22.12
2018-09-26T05:35:29.382Z,22.25
2018-09-26T05:36:29.401Z,22.27
2018-09-26T05:37:29.420Z,22.24
2018-09-26T05:38:29.440Z,22.33
2018-09-26T05:39:29.454Z,22.39
2018-09-26T05:40:29.476Z,22.49
2018-09-26T05:41:29.490Z,22.46
2018-09-26T05:42:29.511Z,22.37
2018-09-26T05:43:29.522Z,22.42
2018-09-26T05:44:29.541Z,22.31
2018-09-26T05:45:29.553Z,22.27
2018-09-26T05:46:29.579Z,22.31
2018-09-26T05:47:29.593Z,22.27
2018-09-26T05:48:29.688Z,22.28
2018-09-26T05:49:29.625Z,22.31
2018-09-26T05:50:29.644Z,22.33
2018-09-26T05:51:29.660Z,22.33
2018-09-26T05:52:29.687Z,22.25
2018-09-26T05:53:29.786Z,22.18
2018-09-26T05:54:29.755Z,22.20
2018-09-26T05:55:29.731Z,22.06
2018-09-26T05:56:29.741Z,22.24
2018-09-26T05:57:29.767Z,22.14
2018-09-26T05:58:29.776Z,22.17
2018-09-26T05:59:29.828Z,22.12
2018-09-26T06:00:29.823Z,22.20
2018-09-26T06:01:29.840Z,22.09
2018-09-26T06:02:29.852Z,22.12
2018-09-26T06:03:29.868Z,22.21
2018-09-26T06:04:29.881Z,21.99
2018-09-26T06:05:29.911Z,21.98
2018-09-26T06:06:29.923Z,21.99
2018-09-26T06:07:29.937Z,21.94
2018-09-26T06:08:29.956Z,21.90
2018-09-26T06:09:29.980Z,21.88
2018-09-26T06:10:29.986Z,21.94
2018-09-26T06:11:30.016Z,21.98
2018-09-26T06:12:30.036Z,21.92
2018-09-26T06:13:30.049Z,21.99
2018-09-26T06:14:30.060Z,22.09
2018-09-26T06:15:30.075Z,21.99
2018-09-26T06:16:30.095Z,21.99
2018-09-26T06:17:30.111Z,21.92
2018-09-26T06:18:30.137Z,21.99
2018-09-26T06:19:30.145Z,21.98
2018-09-26T06:20:30.158Z,21.86
2018-09-26T06:21:30.178Z,21.91
2018-09-26T06:22:30.200Z,21.92
2018-09-26T06:23:30.220Z,22.03
2018-09-26T06:24:30.247Z,22.02
2018-09-26T06:25:30.253Z,22.12
2018-09-26T06:26:30.265Z,22.07
2018-09-26T06:27:30.290Z,22.22
2018-09-26T06:28:30.339Z,22.28
2018-09-26T06:29:30.315Z,22.40
2018-09-26T06:30:30.333Z,22.46
2018-09-26T06:31:30.351Z,22.49
2018-09-26T06:32:30.372Z,22.47
2018-09-26T06:33:30.382Z,22.62
2018-09-26T06:34:30.405Z,22.61
2018-09-26T06:35:30.424Z,22.70
2018-09-26T06:36:30.441Z,22.58
2018-09-26T06:37:30.462Z,22.65
2018-09-26T06:38:30.498Z,22.57
2018-09-26T06:39:30.493Z,22.70
2018-09-26T06:40:30.542Z,22.72
2018-09-26T06:41:30.523Z,22.62
2018-09-26T06:42:30.542Z,22.58
2018-09-26T06:43:30.555Z,22.52
2018-09-26T06:44:30.578Z,22.55
2018-09-26T06:45:30.588Z,22.52
2018-09-26T06:46:30.609Z,22.47
2018-09-26T06:47:30.686Z,22.54
2018-09-26T06:48:30.643Z,22.47
2018-09-26T06:49:30.705Z,22.62
2018-09-26T06:50:30.689Z,22.51
2018-09-26T06:51:30.697Z,22.47
2018-09-26T06:52:30.714Z,22.51
2018-09-26T06:53:30.730Z,22.60
2018-09-26T06:54:30.747Z,22.60
2018-09-26T06:55:30.806Z,22.65
2018-09-26T06:56:30.834Z,22.52
2018-09-26T06:57:30.799Z,22.58
2018-09-26T06:58:30.814Z,22.61
2018-09-26T06:59:30.835Z,22.57
2018-09-26T07:00:30.851Z,22.58
2018-09-26T07:01:30.931Z,22.61
2018-09-26T07:02:30.881Z,22.58
2018-09-26T07:03:30.902Z,22.58
2018-09-26T07:04:30.926Z,22.67
2018-09-26T07:05:30.938Z,22.67
2018-09-26T07:06:30.959Z,22.76
2018-09-26T07:07:30.971Z,22.85
2018-09-26T07:08:30.985Z,22.82
2018-09-26T07:09:31.003Z,22.85
2018-09-26T07:10:31.023Z,22.86
2018-09-26T07:11:31.033Z,22.94
2018-09-26T07:12:31.055Z,22.94
2018-09-26T07:13:31.073Z,22.92
2018-09-26T07:14:31.137Z,22.95
2018-09-26T07:15:31.140Z,22.91
2018-09-26T07:16:31.121Z,23.02
2018-09-26T07:17:31.147Z,22.90
2018-09-26T07:18:31.157Z,22.92
2018-09-26T07:19:31.179Z,23.04
2018-09-26T07:20:31.261Z,23.04
2018-09-26T07:21:31.223Z,23.17
2018-09-26T07:22:31.226Z,23.54
2018-09-26T07:23:31.245Z,24.15
2018-09-26T07:24:31.270Z,24.67
2018-09-26T07:25:31.285Z,25.42
2018-09-26T07:26:31.383Z,25.73
2018-09-26T07:27:31.324Z,26.17
2018-09-26T07:28:31.336Z,26.52
2018-09-26T07:29:31.353Z,26.85
2018-09-26T07:30:31.365Z,27.27
2018-09-26T07:31:31.455Z,27.51
2018-09-26T07:32:31.406Z,27.82
2018-09-26T07:33:31.426Z,28.27
2018-09-26T07:34:31.446Z,28.52
2018-09-26T07:35:31.465Z,29.00
2018-09-26T07:36:31.481Z,29.37
2018-09-26T07:37:31.497Z,29.37
2018-09-26T07:38:31.535Z,29.67
2018-09-26T07:39:31.537Z,29.76
2018-09-26T07:40:31.554Z,29.41
2018-09-26T07:41:31.577Z,29.74
2018-09-26T07:42:31.594Z,30.05
2018-09-26T07:43:31.633Z,30.10
2018-09-26T07:44:31.641Z,29.97
2018-09-26T07:45:31.676Z,29.83
2018-09-26T07:46:31.678Z,29.89
2018-09-26T07:47:31.695Z,30.10
2018-09-26T07:48:31.721Z,30.24
2018-09-26T07:49:31.741Z,30.24
2018-09-26T07:50:31.756Z,30.27
2018-09-26T07:51:31.781Z,30.32
2018-09-26T07:52:31.805Z,30.27
2018-09-26T07:53:31.816Z,30.39
2018-09-26T07:54:31.840Z,30.46
2018-09-26T07:55:31.864Z,30.45
2018-09-26T07:56:31.876Z,30.32
2018-09-26T07:57:31.986Z,30.45
2018-09-26T07:58:31.930Z,30.38
2018-09-26T07:59:31.952Z,30.26
2018-09-26T08:00:31.985Z,30.39
2018-09-26T08:01:31.990Z,30.54
2018-09-26T08:02:31.999Z,30.57
2018-09-26T08:03:32.068Z,30.53
2018-09-26T08:04:32.040Z,30.72
2018-09-26T08:05:32.072Z,30.91
2018-09-26T08:06:32.085Z,31.10
2018-09-26T08:07:32.105Z,31.07
2018-09-26T08:08:32.129Z,30.88
2018-09-26T08:09:32.220Z,30.86
2018-09-26T08:10:32.171Z,30.65
2018-09-26T08:11:32.222Z,30.79
2018-09-26T08:12:32.214Z,31.13
2018-09-26T08:13:32.232Z,31.47
2018-09-26T08:14:32.262Z,31.51
2018-09-26T08:15:32.315Z,31.86
2018-09-26T08:16:32.299Z,31.84
2018-09-26T08:17:32.319Z,31.68
2018-09-26T08:18:32.423Z,31.73
2018-09-26T08:19:32.360Z,31.73
2018-09-26T08:20:32.377Z,31.85
2018-09-26T08:21:32.431Z,31.78
2018-09-26T08:22:32.425Z,31.81
2018-09-26T08:23:32.448Z,31.85
2018-09-26T08:24:32.469Z,31.73
2018-09-26T08:25:32.491Z,32.07
2018-09-26T08:26:32.512Z,32.35
2018-09-26T08:27:32.530Z,32.10
2018-09-26T08:28:32.547Z,32.37
2018-09-26T08:29:32.573Z,32.33
2018-09-26T08:30:32.591Z,32.41
2018-09-26T08:31:32.614Z,32.33
2018-09-26T08:32:32.695Z,32.35
2018-09-26T08:33:32.664Z,32.48
2018-09-26T08:34:32.768Z,32.69
2018-09-26T08:35:32.701Z,32.51
2018-09-26T08:36:32.725Z,32.32
2018-09-26T08:37:32.753Z,32.30
2018-09-26T08:38:32.765Z,32.33
2018-09-26T08:39:32.800Z,32.52
2018-09-26T08:40:32.874Z,32.40
2018-09-26T08:41:32.835Z,32.21
2018-09-26T08:42:32.871Z,31.93
2018-09-26T08:43:32.878Z,31.95
2018-09-26T08:44:32.914Z,32.04
2018-09-26T08:45:32.920Z,32.13
2018-09-26T08:46:32.948Z,32.41
2018-09-26T08:47:32.958Z,32.57
2018-09-26T08:48:32.993Z,32.37
2018-09-26T08:49:33.015Z,32.07
2018-09-26T08:50:33.034Z,32.04
2018-09-26T08:51:33.050Z,32.00
2018-09-26T08:52:33.109Z,32.18
2018-09-26T08:53:33.136Z,32.21
2018-09-26T08:54:33.129Z,32.25
2018-09-26T08:55:33.138Z,32.28
2018-09-26T08:56:33.162Z,32.25
2018-09-26T08:57:33.182Z,32.43
2018-09-26T08:58:33.248Z,32.47
2018-09-26T08:59:33.242Z,32.60
2018-09-26T09:00:33.253Z,32.59
2018-09-26T09:01:33.280Z,32.40
2018-09-26T09:02:33.305Z,32.28
2018-09-26T09:03:33.316Z,32.04
2018-09-26T09:04:33.342Z,32.26
2018-09-26T09:05:33.370Z,32.30
2018-09-26T09:06:33.380Z,32.15
2018-09-26T09:07:33.407Z,32.56
2018-09-26T09:08:33.439Z,32.87
2018-09-26T09:09:33.452Z,33.16
2018-09-26T09:10:33.535Z,33.16
2018-09-26T09:11:33.500Z,32.96
2018-09-26T09:12:33.519Z,33.01
2018-09-26T09:13:33.540Z,33.01
2018-09-26T09:14:33.743Z,33.19
2018-09-26T09:15:33.586Z,33.56
2018-09-26T09:16:33.622Z,33.76
2018-09-26T09:17:33.634Z,33.54
2018-09-26T09:18:33.649Z,33.54
2018-09-26T09:19:33.678Z,33.44
2018-09-26T09:20:33.697Z,33.26
2018-09-26T09:21:33.714Z,32.96
2018-09-26T09:22:33.748Z,32.48
2018-09-26T09:23:33.770Z,32.37
2018-09-26T09:24:33.792Z,32.30
2018-09-26T09:25:33.814Z,32.18
2018-09-26T09:26:33.833Z,32.01
2018-09-26T09:27:33.900Z,32.26
2018-09-26T09:28:33.883Z,32.66
2018-09-26T09:29:33.906Z,32.65
2018-09-26T09:30:33.926Z,32.93
2018-09-26T09:31:33.948Z,33.04
2018-09-26T09:32:33.968Z,33.35
2018-09-26T09:33:33.998Z,33.59
2018-09-26T09:34:34.016Z,33.90
2018-09-26T09:35:34.037Z,33.50
2018-09-26T09:36:34.141Z,33.18
2018-09-26T09:37:34.091Z,33.16
2018-09-26T09:38:34.105Z,33.41
2018-09-26T09:39:34.135Z,33.41
2018-09-26T09:40:34.145Z,33.86
2018-09-26T09:41:34.173Z,33.73
2018-09-26T09:42:34.199Z,33.32
2018-09-26T09:43:34.211Z,33.41
2018-09-26T09:44:34.350Z,33.50
2018-09-26T09:45:34.256Z,33.87
2018-09-26T09:46:34.348Z,34.00
2018-09-26T09:47:34.311Z,34.21
2018-09-26T09:48:34.329Z,34.30
2018-09-26T09:49:34.353Z,34.32
2018-09-26T09:50:34.378Z,34.27
2018-09-26T09:51:34.468Z,34.37
2018-09-26T09:52:34.420Z,34.42
2018-09-26T09:53:34.445Z,34.53
2018-09-26T09:54:34.469Z,34.43
2018-09-26T09:55:34.499Z,34.64
2018-09-26T09:56:34.509Z,34.42
2018-09-26T09:57:34.540Z,34.21
2018-09-26T09:58:34.561Z,34.10
2018-09-26T09:59:34.585Z,33.91
2018-09-26T10:00:34.613Z,34.21
2018-09-26T10:01:34.629Z,34.49
2018-09-26T10:02:34.819Z,34.61
2018-09-26T10:04:34.718Z,35.34
2018-09-26T10:05:34.721Z,35.09
2018-09-26T10:06:34.738Z,35.47
2018-09-26T10:07:34.777Z,35.18
2018-09-26T10:08:34.846Z,35.11
2018-09-26T10:09:35.017Z,35.16
2018-09-26T10:10:34.838Z,35.07
2018-09-26T10:11:34.863Z,34.81
2018-09-26T10:12:35.089Z,33.73
2018-09-26T10:13:34.905Z,33.47
2018-09-26T10:14:34.974Z,33.16
2018-09-26T10:15:35.150Z,33.45
2018-09-26T10:16:35.210Z,33.66
2018-09-26T10:17:35.235Z,32.81
2018-09-26T10:18:35.021Z,32.10
2018-09-26T10:19:35.046Z,31.99
2018-09-26T10:20:35.155Z,31.95
2018-09-26T10:21:35.105Z,31.54
2018-09-26T10:22:35.118Z,31.50
2018-09-26T10:23:35.146Z,31.57
2018-09-26T10:24:35.173Z,32.29
2018-09-26T10:25:35.190Z,32.04
2018-09-26T10:26:35.238Z,32.89
2018-09-26T10:27:35.240Z,32.40
2018-09-26T10:28:35.264Z,32.14
2018-09-26T10:29:35.279Z,32.32
2018-09-26T10:30:35.299Z,32.07
2018-09-26T10:31:35.329Z,31.48
2018-09-26T10:32:35.429Z,31.80
2018-09-26T10:33:35.368Z,31.88
2018-09-26T10:34:35.402Z,32.37
2018-09-26T10:35:35.409Z,32.18
2018-09-26T10:36:35.436Z,31.85
2018-09-26T10:37:35.464Z,31.68
2018-09-26T10:38:35.512Z,31.70
2018-09-26T10:39:35.504Z,32.19
2018-09-26T10:40:35.541Z,33.11
2018-09-26T10:41:35.553Z,33.91
2018-09-26T10:42:35.567Z,34.52
2018-09-26T10:43:35.593Z,34.70
2018-09-26T10:44:35.663Z,32.82
2018-09-26T10:45:35.642Z,32.48
2018-09-26T10:46:35.708Z,32.07
2018-09-26T10:47:35.697Z,32.14
2018-09-26T10:48:35.710Z,32.57
2018-09-26T10:49:35.731Z,32.87
2018-09-26T10:50:35.750Z,32.85
2018-09-26T10:51:35.774Z,32.82
2018-09-26T10:52:35.791Z,32.81
2018-09-26T10:53:35.834Z,32.81
2018-09-26T10:54:35.846Z,33.44
2018-09-26T10:55:35.865Z,33.47
2018-09-26T10:56:36.105Z,33.90
2018-09-26T10:57:35.904Z,33.88
2018-09-26T10:58:35.930Z,33.59
2018-09-26T10:59:35.951Z,34.30
2018-09-26T11:00:35.978Z,35.06
2018-09-26T11:01:35.999Z,35.00
2018-09-26T11:02:36.201Z,35.31
2018-09-26T11:03:36.045Z,35.38
2018-09-26T11:04:36.067Z,34.54
2018-09-26T11:05:36.093Z,33.84
2018-09-26T11:06:36.115Z,34.13
2018-09-26T11:07:36.138Z,33.90
2018-09-26T11:08:36.238Z,33.91
2018-09-26T11:09:36.186Z,33.39
2018-09-26T11:10:36.206Z,33.49
2018-09-26T11:11:36.253Z,33.69
2018-09-26T11:12:36.327Z,33.90
2018-09-26T11:13:36.272Z,33.78
2018-09-26T11:14:36.292Z,33.06
2018-09-26T11:15:36.328Z,32.97
2018-09-26T11:16:36.339Z,32.70
2018-09-26T11:17:36.366Z,32.92
2018-09-26T11:18:36.386Z,33.19
2018-09-26T11:19:36.460Z,33.35
2018-09-26T11:20:36.428Z,33.49
2018-09-26T11:21:36.454Z,33.87
2018-09-26T11:22:36.478Z,33.76
2018-09-26T11:23:36.493Z,33.39
2018-09-26T11:24:36.517Z,33.16
2018-09-26T11:25:36.544Z,33.57
2018-09-26T11:26:36.618Z,33.37
2018-09-26T11:27:36.670Z,33.90
2018-09-26T11:28:36.615Z,34.24
2018-09-26T11:29:36.636Z,34.53
2018-09-26T11:30:36.657Z,35.03
2018-09-26T11:31:36.691Z,34.84
2018-09-26T11:32:36.704Z,35.14
2018-09-26T11:33:36.747Z,35.34
2018-09-26T11:34:36.743Z,35.04
2018-09-26T11:35:36.778Z,35.33
2018-09-26T11:36:36.802Z,35.34
2018-09-26T11:37:36.816Z,34.91
2018-09-26T11:38:36.844Z,34.88
2018-09-26T11:39:36.862Z,34.53
2018-09-26T11:40:36.884Z,34.25
2018-09-26T11:41:36.914Z,34.52
2018-09-26T11:42:36.925Z,34.77
2018-09-26T11:43:36.962Z,34.89
2018-09-26T11:44:37.045Z,34.91
2018-09-26T11:45:37.005Z,34.42
2018-09-26T11:46:37.021Z,34.17
2018-09-26T11:47:37.055Z,33.87
2018-09-26T11:48:37.072Z,33.91
2018-09-26T11:49:37.086Z,34.06
2018-09-26T11:50:37.116Z,34.59
2018-09-26T11:51:37.138Z,34.99
2018-09-26T11:52:37.158Z,34.25
2018-09-26T11:53:37.185Z,34.66
2018-09-26T11:54:37.217Z,34.72
2018-09-26T11:55:37.261Z,34.92
2018-09-26T11:56:37.252Z,35.65
2018-09-26T11:57:37.273Z,35.22
2018-09-26T11:58:37.296Z,35.70
2018-09-26T11:59:37.320Z,35.68
2018-09-26T12:00:37.344Z,35.45
2018-09-26T12:01:37.374Z,35.43
2018-09-26T12:02:37.457Z,35.33
2018-09-26T12:03:37.414Z,34.88
2018-09-26T12:04:37.453Z,35.21
2018-09-26T12:05:37.469Z,34.43
2018-09-26T12:06:37.495Z,34.12
2018-09-26T12:07:37.547Z,33.98
2018-09-26T12:08:37.537Z,34.00
2018-09-26T12:09:37.578Z,34.75
2018-09-26T12:10:37.581Z,35.04
2018-09-26T12:11:37.626Z,35.43
2018-09-26T12:12:37.637Z,35.56
2018-09-26T12:13:37.651Z,35.75
2018-09-26T12:14:37.679Z,36.00
2018-09-26T12:15:37.700Z,36.20
2018-09-26T12:16:37.717Z,35.63
2018-09-26T12:17:37.741Z,35.62
2018-09-26T12:18:37.781Z,35.58
2018-09-26T12:19:37.788Z,36.17
2018-09-26T12:20:37.895Z,36.16
2018-09-26T12:21:37.910Z,36.16
2018-09-26T12:22:38.009Z,35.99
2018-09-26T12:23:37.884Z,36.01
2018-09-26T12:24:37.930Z,35.84
2018-09-26T12:25:37.934Z,36.03
2018-09-26T12:26:37.956Z,36.50
2018-09-26T12:27:38.019Z,36.68
2018-09-26T12:28:38.006Z,36.93
2018-09-26T12:29:38.033Z,37.25
2018-09-26T12:30:38.052Z,37.51
2018-09-26T12:31:38.077Z,37.94
2018-09-26T12:32:38.164Z,37.94
2018-09-26T12:33:38.119Z,37.72
2018-09-26T12:34:38.190Z,37.44
2018-09-26T12:35:38.163Z,37.02
2018-09-26T12:36:38.188Z,36.28
2018-09-26T12:37:38.216Z,35.70
2018-09-26T12:38:38.244Z,35.21
2018-09-26T12:39:38.268Z,35.41
2018-09-26T12:40:38.298Z,35.66
2018-09-26T12:41:38.303Z,35.74
2018-09-26T12:42:38.348Z,35.78
2018-09-26T12:43:38.348Z,36.05
2018-09-26T12:44:38.377Z,36.23
2018-09-26T12:45:38.404Z,36.68
2018-09-26T12:46:38.428Z,37.06
2018-09-26T12:47:38.461Z,37.43
2018-09-26T12:48:38.572Z,37.41
2018-09-26T12:49:38.509Z,37.20
2018-09-26T12:50:38.523Z,36.75
2018-09-26T12:51:38.568Z,36.34
2018-09-26T12:52:38.572Z,36.50
2018-09-26T12:53:38.678Z,36.90
2018-09-26T12:54:38.631Z,36.31